Time;durP1;ratioP1;P1;durP2;ratioP2;P2;SDS_P1;SDS_P2;PMS_P1;PMS_P2;Temp;Humidity;BMP_temperature;BMP_pressure;BME280_temperature;BME280_humidity;BME280_pressure;Samples;Min_cycle;Max_cycle;Signal;HPM_P1;HPM_P2
2022/01/14 00:01:38;;;;;;;50.47;15.52;;;3.20;99.90;;;;;;5055147;28;20024;-48
2022/01/14 00:04:04;;;;;;;44.67;15.05;;;3.30;99.90;;;;;;5074707;28;20141;-47
2022/01/14 00:06:30;;;;;;;43.00;14.65;;;3.30;99.90;;;;;;5076173;28;20032;-47
2022/01/14 00:09:04;;;;;;;39.75;15.10;;;3.50;99.90;;;;;;5074594;28;20021;-49
2022/01/14 00:11:31;;;;;;;42.28;14.75;;;3.50;99.90;;;;;;5075962;28;20024;-47
2022/01/14 00:16:41;;;;;;;36.70;14.63;;;3.50;99.90;;;;;;5075800;28;20020;-53
2022/01/14 00:19:07;;;;;;;41.05;13.82;;;3.50;99.90;;;;;;5075897;28;20527;-47
2022/01/14 00:21:34;;;;;;;40.10;14.35;;;3.50;99.90;;;;;;5074323;28;20027;-48
2022/01/14 00:24:13;;;;;;;39.50;14.05;;;3.40;99.90;;;;;;5075642;28;20017;-47
2022/01/14 00:32:52;;;;;;;37.08;13.55;;;3.50;99.90;;;;;;5075471;28;20416;-47
2022/01/14 00:35:17;;;;;;;37.40;13.70;;;3.50;99.90;;;;;;5075366;28;20027;-46
2022/01/14 00:37:43;;;;;;;33.20;12.77;;;3.70;99.90;;;;;;5074957;28;20028;-47
2022/01/14 00:40:09;;;;;;;36.22;12.75;;;3.60;99.90;;;;;;5075286;28;20028;-47
2022/01/14 00:42:36;;;;;;;39.65;13.13;;;3.70;99.90;;;;;;5075034;28;20141;-47
2022/01/14 00:45:02;;;;;;;36.53;13.82;;;3.70;99.90;;;;;;5060298;28;20088;-50
2022/01/14 00:47:28;;;;;;;38.38;13.77;;;3.60;99.90;;;;;;5053917;28;20477;-47
2022/01/14 00:49:53;;;;;;;35.40;14.43;;;3.60;99.90;;;;;;5053821;28;20025;-47
2022/01/14 00:52:19;;;;;;;42.42;13.27;;;3.60;99.90;;;;;;5053881;28;20033;-48
2022/01/14 00:54:58;;;;;;;38.92;13.52;;;3.50;99.90;;;;;;5054089;28;20021;-47
2022/01/14 00:59:14;;;;;;;36.85;14.55;;;3.50;99.90;;;;;;5053746;28;20024;-47
2022/01/14 01:00:12;;;;;;;33.45;13.52;;;3.40;99.90;;;;;;5054700;28;20029;-50
2022/01/14 01:02:38;;;;;;;35.05;13.10;;;3.40;99.90;;;;;;5054912;28;20120;-48
2022/01/14 01:05:04;;;;;;;42.28;13.82;;;3.40;99.90;;;;;;5055062;28;20423;-48
2022/01/14 01:07:29;;;;;;;39.33;14.60;;;3.30;99.90;;;;;;5054642;28;20047;-47
2022/01/14 01:09:55;;;;;;;38.45;14.77;;;3.40;99.90;;;;;;5054698;28;20021;-48
2022/01/14 01:12:36;;;;;;;35.40;13.88;;;3.30;99.90;;;;;;5053722;28;20032;-47
2022/01/14 01:15:06;;;;;;;41.22;13.82;;;3.30;99.90;;;;;;5054484;28;20112;-47
2022/01/14 01:17:32;;;;;;;40.10;14.43;;;3.40;99.90;;;;;;5053375;28;20032;-47
2022/01/14 01:19:59;;;;;;;42.55;13.70;;;3.40;99.90;;;;;;5053352;28;20028;-49
2022/01/14 01:22:25;;;;;;;32.47;12.00;;;3.50;99.90;;;;;;5054513;28;20025;-47
2022/01/14 01:24:51;;;;;;;61.67;15.77;;;3.40;99.90;;;;;;5052834;28;20476;-47
2022/01/14 01:27:19;;;;;;;34.05;13.02;;;3.40;99.90;;;;;;5053863;28;20047;-47
2022/01/14 01:29:53;;;;;;;35.17;13.32;;;3.40;99.90;;;;;;5054683;28;20029;-46
2022/01/14 01:32:58;;;;;;;44.03;12.65;;;3.30;99.90;;;;;;5052900;28;20053;-47
2022/01/14 01:35:24;;;;;;;37.08;14.13;;;3.30;99.90;;;;;;5052947;28;20035;-49
2022/01/14 01:37:50;;;;;;;33.08;12.32;;;3.40;99.90;;;;;;5054194;28;20040;-49
2022/01/14 01:40:16;;;;;;;35.80;13.77;;;3.30;99.90;;;;;;5052870;28;20025;-50
2022/01/14 01:42:44;;;;;;;48.53;14.70;;;3.30;99.90;;;;;;5053857;28;20100;-50
2022/01/14 01:45:20;;;;;;;44.58;17.27;;;3.30;99.90;;;;;;5053085;28;20028;-49
2022/01/14 01:47:50;;;;;;;38.72;13.45;;;3.30;99.90;;;;;;5052769;28;20131;-47
2022/01/14 01:50:19;;;;;;;31.95;12.48;;;3.20;99.90;;;;;;5054234;28;20021;-47
2022/01/14 01:52:45;;;;;;;41.58;14.23;;;3.20;99.90;;;;;;5052620;28;20119;-47
2022/01/14 01:55:11;;;;;;;40.55;13.73;;;3.20;99.90;;;;;;5053893;28;20028;-47
2022/01/14 01:57:37;;;;;;;52.08;14.88;;;3.20;99.90;;;;;;5054447;28;20025;-50
2022/01/14 02:00:08;;;;;;;28.77;11.65;;;3.30;99.90;;;;;;5052873;28;20036;-48
2022/01/14 02:02:36;;;;;;;40.45;13.48;;;3.30;99.90;;;;;;5052446;28;20025;-48
2022/01/14 02:05:04;;;;;;;32.85;11.35;;;3.30;99.90;;;;;;5053675;28;20021;-47
2022/01/14 02:07:32;;;;;;;34.72;12.15;;;3.20;99.90;;;;;;5052468;28;20112;-47
2022/01/14 02:09:59;;;;;;;32.25;11.82;;;3.30;99.90;;;;;;5052431;28;20029;-49
2022/01/14 02:12:25;;;;;;;30.35;11.77;;;3.30;99.90;;;;;;5053561;28;20025;-51
2022/01/14 02:17:31;;;;;;;26.73;11.35;;;3.40;99.90;;;;;;5053803;28;20025;-50
2022/01/14 02:22:52;;;;;;;31.38;11.35;;;3.30;99.90;;;;;;5053379;28;20078;-49
2022/01/14 02:25:28;;;;;;;29.90;10.75;;;3.30;99.90;;;;;;5053523;28;20070;-48
2022/01/14 02:27:59;;;;;;;25.23;10.75;;;3.30;99.90;;;;;;5059621;28;20027;-46
2022/01/14 02:30:25;;;;;;;30.80;10.57;;;3.40;99.90;;;;;;5073642;28;20465;-47
2022/01/14 02:32:51;;;;;;;28.75;10.18;;;3.40;99.90;;;;;;5073278;28;20036;-47
2022/01/14 02:35:17;;;;;;;27.75;10.93;;;3.20;99.90;;;;;;5073798;28;20025;-50
2022/01/14 02:37:43;;;;;;;26.10;10.85;;;3.20;99.90;;;;;;5072367;28;20031;-47
2022/01/14 02:40:10;;;;;;;27.33;10.48;;;3.20;99.90;;;;;;5073621;28;20025;-46
2022/01/14 02:42:36;;;;;;;21.48;9.40;;;3.10;99.90;;;;;;5073115;28;20050;-48
2022/01/14 02:45:06;;;;;;;25.52;9.88;;;3.10;99.90;;;;;;5071885;28;20029;-46
2022/01/14 02:47:32;;;;;;;44.78;11.50;;;2.90;99.90;;;;;;5073523;28;20018;-47
2022/01/14 02:49:58;;;;;;;43.33;10.65;;;2.90;99.90;;;;;;5072163;28;20111;-47
2022/01/14 02:52:40;;;;;;;51.38;11.00;;;2.80;99.90;;;;;;5071818;28;20040;-46
2022/01/14 02:55:15;;;;;;;51.13;11.15;;;2.60;99.90;;;;;;5072783;28;20036;-47
2022/01/14 02:57:43;;;;;;;54.08;11.70;;;2.30;99.90;;;;;;5073063;28;20027;-47
2022/01/14 03:00:10;;;;;;;45.45;12.25;;;2.20;99.90;;;;;;5071806;28;20028;-46
2022/01/14 03:02:38;;;;;;;32.67;10.38;;;2.20;99.90;;;;;;5073229;28;20036;-46
2022/01/14 03:05:04;;;;;;;48.70;11.52;;;2.20;99.90;;;;;;5073061;28;20017;-47
2022/01/14 03:07:29;;;;;;;45.63;10.88;;;2.10;99.90;;;;;;5073056;28;20017;-49
2022/01/14 03:09:56;;;;;;;26.92;10.07;;;2.00;99.90;;;;;;5072978;28;20050;-48
2022/01/14 03:12:21;;;;;;;31.35;10.45;;;2.10;99.90;;;;;;5071917;28;20071;-46
2022/01/14 03:14:47;;;;;;;38.95;11.38;;;2.20;99.90;;;;;;5072924;28;20106;-47
2022/01/14 03:17:13;;;;;;;26.08;10.00;;;2.10;99.90;;;;;;5071664;28;20079;-47
2022/01/14 03:19:38;;;;;;;21.35;8.55;;;2.20;99.90;;;;;;5071627;28;20075;-47
2022/01/14 03:22:07;;;;;;;32.53;9.43;;;2.20;99.90;;;;;;5072362;28;20082;-48
2022/01/14 03:27:03;;;;;;;21.55;8.20;;;2.30;99.90;;;;;;5073382;28;20484;-47
2022/01/14 03:29:29;;;;;;;29.92;8.77;;;2.50;99.90;;;;;;5071503;28;20029;-49
2022/01/14 03:31:55;;;;;;;24.30;7.50;;;2.40;99.90;;;;;;5072810;28;20027;-50
2022/01/14 03:34:20;;;;;;;29.73;8.27;;;2.40;99.90;;;;;;5071467;28;20025;-47
2022/01/14 03:36:46;;;;;;;49.58;10.77;;;2.30;99.90;;;;;;5071610;28;20024;-47
2022/01/14 03:39:12;;;;;;;27.88;9.88;;;2.20;99.90;;;;;;5071447;28;20075;-46
2022/01/14 03:41:37;;;;;;;25.02;8.77;;;2.10;99.90;;;;;;5072570;28;20464;-48
2022/01/14 03:44:03;;;;;;;23.60;9.80;;;2.30;99.90;;;;;;5072328;28;20044;-48
2022/01/14 03:46:29;;;;;;;21.70;8.25;;;2.50;99.90;;;;;;5072645;28;20039;-50
2022/01/14 03:48:55;;;;;;;21.92;8.30;;;2.60;99.90;;;;;;5072435;28;20016;-47
2022/01/14 03:51:23;;;;;;;30.60;10.55;;;2.70;99.90;;;;;;5074875;28;20476;-45
2022/01/14 03:53:48;;;;;;;27.92;8.75;;;2.70;99.90;;;;;;5076052;28;20062;-47
2022/01/14 03:56:15;;;;;;;24.48;10.05;;;2.70;99.90;;;;;;5075093;28;20057;-45
2022/01/14 03:58:41;;;;;;;29.40;11.70;;;2.70;99.90;;;;;;5074859;28;20036;-50
2022/01/14 04:01:07;;;;;;;29.20;9.32;;;2.60;99.90;;;;;;5074962;28;20077;-51
2022/01/14 04:03:34;;;;;;;32.15;11.48;;;2.60;99.90;;;;;;5074907;28;20107;-48
2022/01/14 04:05:59;;;;;;;29.55;10.00;;;2.70;99.90;;;;;;5074961;28;20105;-48
2022/01/14 04:08:25;;;;;;;31.83;10.07;;;2.70;99.90;;;;;;5075929;28;20071;-49
2022/01/14 04:10:53;;;;;;;31.00;10.98;;;2.70;99.90;;;;;;5075871;28;20541;-52
2022/01/14 04:13:35;;;;;;;36.10;12.02;;;2.70;99.90;;;;;;5074788;28;20395;-50
2022/01/14 04:16:00;;;;;;;23.20;9.68;;;2.80;99.90;;;;;;5075231;28;20384;-49
2022/01/14 04:18:26;;;;;;;19.40;9.07;;;2.70;99.90;;;;;;5074636;28;20032;-47
2022/01/14 04:20:52;;;;;;;56.90;11.00;;;2.80;99.90;;;;;;5075704;28;20032;-47
2022/01/14 04:23:21;;;;;;;49.97;10.75;;;2.80;99.90;;;;;;5075731;28;20107;-46
2022/01/14 04:25:53;;;;;;;46.45;10.38;;;2.70;99.90;;;;;;5075893;28;20021;-47
2022/01/14 04:28:29;;;;;;;50.15;12.27;;;2.40;99.90;;;;;;5075826;28;20024;-47
2022/01/14 04:30:54;;;;;;;57.15;11.48;;;2.30;99.90;;;;;;5074302;28;20025;-46
2022/01/14 04:33:25;;;;;;;67.20;12.18;;;2.10;99.90;;;;;;5074376;28;20082;-47
2022/01/14 04:35:54;;;;;;;25.60;9.77;;;2.10;99.90;;;;;;5074180;28;20021;-48
2022/01/14 04:38:20;;;;;;;21.75;9.18;;;2.00;99.90;;;;;;5075628;28;20031;-47
2022/01/14 04:40:45;;;;;;;28.23;9.93;;;2.30;99.90;;;;;;5075308;28;20024;-48
2022/01/14 04:43:16;;;;;;;25.63;9.50;;;2.40;99.90;;;;;;5075106;28;20025;-47
2022/01/14 04:45:54;;;;;;;37.85;9.55;;;2.30;99.90;;;;;;5075283;28;20019;-48
2022/01/14 04:48:20;;;;;;;76.00;11.43;;;2.20;99.90;;;;;;5074807;28;20038;-47
2022/01/14 04:50:45;;;;;;;22.42;8.63;;;2.00;99.90;;;;;;5074162;28;20021;-47
2022/01/14 04:53:11;;;;;;;37.95;9.43;;;2.00;99.90;;;;;;5073697;28;20036;-47
2022/01/14 04:55:37;;;;;;;29.83;8.77;;;2.10;99.90;;;;;;5074978;28;20035;-47
2022/01/14 04:58:03;;;;;;;24.20;8.70;;;2.10;99.90;;;;;;5075132;28;20105;-47
2022/01/14 05:00:29;;;;;;;56.28;10.25;;;2.20;99.90;;;;;;5073731;28;20040;-46
2022/01/14 05:02:55;;;;;;;24.35;9.15;;;2.20;99.90;;;;;;5074670;28;20028;-48
2022/01/14 05:05:27;;;;;;;63.45;11.45;;;2.00;99.90;;;;;;5075132;28;20027;-47
2022/01/14 05:07:53;;;;;;;85.32;13.40;;;2.10;99.90;;;;;;5073490;28;20020;-47
2022/01/14 05:12:54;;;;;;;25.48;9.00;;;1.90;99.90;;;;;;5074764;28;20024;-47
2022/01/14 05:15:20;;;;;;;76.80;12.98;;;2.10;99.90;;;;;;5074432;28;20028;-47
2022/01/14 05:17:47;;;;;;;27.40;9.77;;;2.30;99.90;;;;;;5073265;28;20440;-47
2022/01/14 05:20:13;;;;;;;23.63;9.48;;;2.20;99.90;;;;;;5073133;28;20111;-47
2022/01/14 05:22:40;;;;;;;23.38;9.45;;;2.30;99.90;;;;;;5073020;28;20032;-47
2022/01/14 05:25:08;;;;;;;109.57;15.65;;;2.20;99.90;;;;;;5073438;28;20120;-46
2022/01/14 05:27:35;;;;;;;30.60;11.32;;;2.30;99.90;;;;;;5073047;28;20074;-47
2022/01/14 05:30:01;;;;;;;29.02;9.80;;;2.30;99.90;;;;;;5074399;28;20079;-47
2022/01/14 05:32:27;;;;;;;29.80;9.73;;;2.30;99.90;;;;;;5072908;28;20036;-48
2022/01/14 05:34:54;;;;;;;30.67;10.20;;;2.30;99.90;;;;;;5074524;28;20017;-48
2022/01/14 05:37:19;;;;;;;23.45;8.90;;;2.40;99.90;;;;;;5073000;28;20078;-47
2022/01/14 05:39:45;;;;;;;24.08;9.20;;;2.40;99.90;;;;;;5074114;28;20021;-47
2022/01/14 05:42:11;;;;;;;30.60;9.32;;;2.40;99.90;;;;;;5074536;28;20025;-46
2022/01/14 05:44:37;;;;;;;20.50;7.95;;;2.40;99.90;;;;;;5072712;28;20074;-51
2022/01/14 05:47:04;;;;;;;20.10;8.13;;;2.40;99.90;;;;;;5073509;28;20023;-47
2022/01/14 05:49:30;;;;;;;21.50;8.85;;;2.50;99.90;;;;;;5072684;28;20078;-49
2022/01/14 05:51:56;;;;;;;25.27;9.00;;;2.60;99.90;;;;;;5073980;28;20044;-48
2022/01/14 05:54:22;;;;;;;24.27;9.40;;;2.50;99.90;;;;;;5072519;28;20055;-47
2022/01/14 05:56:48;;;;;;;19.38;8.50;;;2.50;99.90;;;;;;5072520;28;20031;-48
2022/01/14 05:59:14;;;;;;;26.38;9.02;;;2.60;99.90;;;;;;5073885;28;20111;-51
2022/01/14 06:01:41;;;;;;;19.75;7.82;;;2.60;99.90;;;;;;5073616;28;20150;-51
2022/01/14 06:04:06;;;;;;;22.83;9.07;;;2.40;99.90;;;;;;5073587;28;20028;-49
2022/01/14 06:06:34;;;;;;;25.95;9.23;;;2.50;99.90;;;;;;5072472;28;20024;-50
2022/01/14 06:08:59;;;;;;;22.55;8.63;;;2.50;99.90;;;;;;5072680;28;20029;-49
2022/01/14 06:11:26;;;;;;;25.67;8.68;;;2.40;99.90;;;;;;5071899;28;20036;-47
2022/01/14 06:13:52;;;;;;;25.17;8.82;;;2.50;99.90;;;;;;5073576;28;20032;-50
2022/01/14 06:16:18;;;;;;;22.63;9.02;;;2.50;99.90;;;;;;5072257;28;20047;-47
2022/01/14 06:18:45;;;;;;;29.27;10.60;;;2.50;99.90;;;;;;5073447;28;20477;-47
2022/01/14 06:21:11;;;;;;;24.23;10.15;;;2.50;99.90;;;;;;5072058;28;20047;-47
2022/01/14 06:23:37;;;;;;;30.17;10.90;;;2.40;99.90;;;;;;5072170;28;20088;-47
2022/01/14 06:26:03;;;;;;;32.03;10.52;;;2.40;99.90;;;;;;5073668;28;20029;-47
2022/01/14 06:28:29;;;;;;;26.50;9.40;;;2.40;99.90;;;;;;5072101;28;20031;-46
2022/01/14 06:30:55;;;;;;;23.58;9.45;;;2.40;99.90;;;;;;5072767;28;20023;-48
2022/01/14 06:33:22;;;;;;;35.25;12.23;;;2.50;99.90;;;;;;5072262;28;20028;-47
2022/01/14 06:35:49;;;;;;;34.50;12.55;;;2.50;99.90;;;;;;5073281;28;20062;-47
2022/01/14 06:38:16;;;;;;;27.63;10.63;;;2.60;99.90;;;;;;5071929;28;20024;-47
2022/01/14 06:40:42;;;;;;;20.75;7.82;;;2.60;99.90;;;;;;5073225;28;20060;-46
2022/01/14 06:43:07;;;;;;;28.77;10.05;;;2.60;99.90;;;;;;5073058;28;20082;-47
2022/01/14 06:45:33;;;;;;;21.52;8.55;;;2.60;99.90;;;;;;5073140;28;20100;-47
2022/01/14 06:47:59;;;;;;;51.17;10.10;;;2.60;99.90;;;;;;5052942;28;20163;-47
2022/01/14 06:50:25;;;;;;;20.67;7.57;;;2.50;99.90;;;;;;5051841;28;20041;-46
2022/01/14 06:52:51;;;;;;;18.88;7.45;;;2.30;99.90;;;;;;5053446;28;20120;-47
2022/01/14 06:55:17;;;;;;;17.73;6.97;;;2.40;99.90;;;;;;5052956;28;20151;-49
2022/01/14 06:57:43;;;;;;;19.65;8.48;;;2.40;99.90;;;;;;5052961;28;20033;-48
2022/01/14 07:00:11;;;;;;;20.77;8.35;;;2.40;99.90;;;;;;5052055;28;20032;-47
2022/01/14 07:02:37;;;;;;;48.45;10.93;;;2.40;99.90;;;;;;5052037;28;20029;-46
2022/01/14 07:05:04;;;;;;;26.52;8.05;;;2.30;99.90;;;;;;5052939;28;20044;-48
2022/01/14 07:07:29;;;;;;;21.15;8.23;;;2.20;99.90;;;;;;5052804;28;20029;-47
2022/01/14 07:09:58;;;;;;;18.48;7.63;;;2.10;99.90;;;;;;5051761;28;20083;-47
2022/01/14 07:12:38;;;;;;;17.83;7.32;;;2.10;99.90;;;;;;5052848;28;20037;-47
2022/01/14 07:15:08;;;;;;;28.67;8.88;;;2.20;99.90;;;;;;5052865;28;20029;-49
2022/01/14 07:17:34;;;;;;;22.10;8.68;;;2.30;99.90;;;;;;5052541;28;20021;-51
2022/01/14 07:20:06;;;;;;;23.73;8.30;;;2.30;99.90;;;;;;5052791;28;20032;-47
2022/01/14 07:22:32;;;;;;;21.30;9.20;;;2.30;99.90;;;;;;5052697;28;20021;-49
2022/01/14 07:24:58;;;;;;;21.55;8.07;;;2.40;99.90;;;;;;5054215;28;20032;-49
2022/01/14 07:27:25;;;;;;;51.20;10.07;;;2.40;99.90;;;;;;5055484;28;20071;-48
2022/01/14 07:29:51;;;;;;;25.40;9.13;;;2.40;99.90;;;;;;5055356;28;20032;-49
2022/01/14 07:32:16;;;;;;;21.85;8.25;;;2.40;99.90;;;;;;5055232;28;20025;-52
2022/01/14 07:34:42;;;;;;;38.60;10.02;;;2.40;99.90;;;;;;5055309;28;20435;-47
2022/01/14 07:37:08;;;;;;;76.53;13.98;;;2.50;99.90;;;;;;5055603;28;20032;-49
2022/01/14 07:39:34;;;;;;;30.83;9.32;;;2.50;99.90;;;;;;5056431;28;20135;-49
2022/01/14 07:42:00;;;;;;;33.40;10.10;;;2.40;99.90;;;;;;5056332;28;20029;-50
2022/01/14 07:44:25;;;;;;;101.95;17.00;;;2.30;99.90;;;;;;5056295;28;20037;-49
2022/01/14 07:46:55;;;;;;;41.88;11.02;;;2.30;99.90;;;;;;5055284;28;20110;-52
2022/01/14 07:49:20;;;;;;;29.77;8.38;;;2.20;99.90;;;;;;5055076;28;20017;-50
2022/01/14 07:51:46;;;;;;;41.88;9.63;;;2.30;99.90;;;;;;5056199;28;20033;-46
2022/01/14 07:54:13;;;;;;;25.10;7.40;;;2.20;99.90;;;;;;5056071;28;20025;-47
2022/01/14 07:56:45;;;;;;;23.73;8.13;;;2.40;99.90;;;;;;5055401;28;20040;-49
2022/01/14 07:59:13;;;;;;;22.42;7.88;;;2.60;99.90;;;;;;5054832;28;20036;-48
2022/01/14 08:01:40;;;;;;;18.17;7.85;;;2.50;99.90;;;;;;5055051;28;20025;-49
2022/01/14 08:04:06;;;;;;;32.38;9.57;;;2.50;99.90;;;;;;5055679;28;20418;-49
2022/01/14 08:06:33;;;;;;;23.35;8.45;;;2.70;99.90;;;;;;5054617;28;20059;-49
2022/01/14 08:09:00;;;;;;;24.70;8.80;;;2.60;99.90;;;;;;5054592;28;20021;-47
2022/01/14 08:11:25;;;;;;;24.35;8.50;;;2.60;99.90;;;;;;5055732;28;20025;-47
2022/01/14 08:13:51;;;;;;;22.75;8.15;;;2.60;99.90;;;;;;5054472;28;20081;-48
2022/01/14 08:16:17;;;;;;;31.70;8.25;;;2.60;99.90;;;;;;5060752;28;20032;-48
2022/01/14 08:18:42;;;;;;;20.90;7.55;;;2.70;99.90;;;;;;5074490;28;20032;-47
2022/01/14 08:21:08;;;;;;;18.42;7.28;;;2.80;99.90;;;;;;5074396;28;20021;-48
2022/01/14 08:23:34;;;;;;;17.48;7.25;;;2.70;99.90;;;;;;5075599;28;20069;-47
2022/01/14 08:25:59;;;;;;;20.38;7.70;;;2.50;99.90;;;;;;5075648;28;20099;-47
2022/01/14 08:28:25;;;;;;;20.45;8.43;;;2.50;99.90;;;;;;5075648;28;20020;-48
2022/01/14 08:30:51;;;;;;;17.58;8.25;;;2.60;99.90;;;;;;5074315;28;20047;-48
2022/01/14 08:33:18;;;;;;;23.95;7.35;;;2.70;99.90;;;;;;5074278;28;20051;-48
2022/01/14 08:35:44;;;;;;;34.67;8.70;;;2.70;99.90;;;;;;5075150;28;20025;-49
2022/01/14 08:38:09;;;;;;;39.75;9.05;;;2.50;99.90;;;;;;5074424;28;20052;-47
2022/01/14 08:40:35;;;;;;;56.22;8.60;;;2.30;99.90;;;;;;5074274;28;20029;-48
2022/01/14 08:43:01;;;;;;;21.08;7.85;;;2.10;99.90;;;;;;5074992;28;20392;-47
2022/01/14 08:45:27;;;;;;;24.20;9.27;;;2.00;99.90;;;;;;5073893;28;20066;-48
2022/01/14 08:47:55;;;;;;;36.00;7.10;;;2.00;99.90;;;;;;5073858;28;20028;-49
2022/01/14 08:50:36;;;;;;;48.65;8.90;;;2.10;99.90;;;;;;5073599;28;20031;-47
2022/01/14 08:53:05;;;;;;;20.55;6.82;;;1.80;99.90;;;;;;5073600;28;20032;-49
2022/01/14 08:55:31;;;;;;;94.22;10.80;;;1.80;99.90;;;;;;5073078;28;20119;-47
2022/01/14 08:57:57;;;;;;;17.35;6.93;;;1.70;99.90;;;;;;5075316;28;20047;-46
2022/01/14 09:00:25;;;;;;;18.60;7.45;;;1.90;99.90;;;;;;5074902;28;20024;-47
2022/01/14 09:02:51;;;;;;;21.42;7.85;;;2.10;99.90;;;;;;5074514;28;20020;-48
2022/01/14 09:05:17;;;;;;;18.00;7.18;;;2.30;99.90;;;;;;5074606;28;20047;-46
2022/01/14 09:07:54;;;;;;;20.35;7.43;;;2.60;99.90;;;;;;5074535;28;20025;-46
2022/01/14 09:10:38;;;;;;;22.55;8.73;;;2.70;99.90;;;;;;5075110;28;20024;-47
2022/01/14 09:13:30;;;;;;;29.45;7.28;;;2.90;99.90;;;;;;5073690;28;20512;-50
2022/01/14 09:16:06;;;;;;;21.55;7.80;;;3.00;99.90;;;;;;5073989;28;20040;-46
2022/01/14 09:18:40;;;;;;;21.98;8.45;;;3.00;99.90;;;;;;5073165;28;20075;-46
2022/01/14 09:21:21;;;;;;;20.60;7.30;;;3.10;99.90;;;;;;5074478;28;20541;-47
2022/01/14 09:24:08;;;;;;;19.83;7.57;;;3.20;99.90;;;;;;5072968;28;20392;-48
2022/01/14 09:26:39;;;;;;;26.38;9.88;;;3.30;99.90;;;;;;5072993;28;20031;-49
2022/01/14 09:29:40;;;;;;;18.97;7.60;;;3.40;99.90;;;;;;5074286;28;20100;-50
2022/01/14 09:32:14;;;;;;;26.42;6.85;;;3.10;99.90;;;;;;5074362;28;20076;-47
2022/01/14 09:34:52;;;;;;;31.40;8.82;;;3.10;99.90;;;;;;5069491;28;20025;-47
2022/01/14 09:37:23;;;;;;;20.25;8.10;;;2.80;99.90;;;;;;5054120;28;20082;-46
2022/01/14 09:39:57;;;;;;;34.30;8.90;;;2.70;99.90;;;;;;5057035;28;20035;-46
2022/01/14 09:42:35;;;;;;;17.55;7.20;;;2.70;99.90;;;;;;5073874;28;20025;-48
2022/01/14 09:45:19;;;;;;;33.25;9.30;;;2.60;99.90;;;;;;5073944;28;20043;-47
2022/01/14 09:47:55;;;;;;;52.40;9.02;;;2.70;99.90;;;;;;5071734;28;20027;-47
2022/01/14 09:50:25;;;;;;;27.38;8.57;;;2.70;99.90;;;;;;5072142;28;20035;-45
2022/01/14 09:52:57;;;;;;;21.50;7.68;;;2.70;99.90;;;;;;5073776;28;20037;-45
2022/01/14 09:55:39;;;;;;;17.40;6.93;;;2.70;99.90;;;;;;5072486;28;20055;-46
2022/01/14 09:58:24;;;;;;;;;;;;;;;;;;;;;
2022/01/14 10:01:15;;;;;;;32.10;9.35;;;3.20;99.90;;;;;;5073927;28;20052;-47
2022/01/14 10:04:06;;;;;;;60.00;11.70;;;3.00;99.90;;;;;;5073563;28;20032;-48
2022/01/14 10:06:51;;;;;;;21.55;9.20;;;2.90;99.90;;;;;;5053783;28;20041;-44
2022/01/14 10:09:59;;;;;;;20.40;8.23;;;3.10;99.90;;;;;;5066299;28;20366;-46
2022/01/14 10:12:53;;;;;;;23.88;8.88;;;3.40;99.90;;;;;;5072166;28;20024;-47
2022/01/14 10:15:30;;;;;;;20.30;7.45;;;3.70;99.90;;;;;;5073542;28;20040;-47
2022/01/14 10:18:25;;;;;;;24.70;8.70;;;4.00;99.90;;;;;;5072447;28;20485;-46
2022/01/14 10:21:06;;;;;;;18.88;7.00;;;4.30;99.90;;;;;;5072119;28;20034;-46
2022/01/14 10:24:15;;;;;;;19.95;7.47;;;4.20;99.90;;;;;;5072042;28;20112;-46
2022/01/14 10:27:16;;;;;;;21.63;8.43;;;4.60;99.90;;;;;;5068464;28;20036;-46
2022/01/14 10:29:57;;;;;;;26.02;8.90;;;4.60;99.90;;;;;;5072660;28;20078;-46
2022/01/14 10:32:38;;;;;;;18.23;8.70;;;4.70;99.90;;;;;;5072237;28;20033;-46
2022/01/14 10:35:23;;;;;;;22.05;10.27;;;4.50;99.90;;;;;;5073249;28;20267;-46
2022/01/14 10:37:56;;;;;;;20.33;8.30;;;4.60;99.90;;;;;;5072018;28;20047;-46
2022/01/14 10:40:28;;;;;;;17.88;7.18;;;4.60;99.90;;;;;;5071722;28;20032;-45
2022/01/14 10:43:16;;;;;;;19.42;8.18;;;4.60;99.90;;;;;;5071631;28;20112;-45
2022/01/14 10:45:53;;;;;;;23.02;8.80;;;4.20;99.90;;;;;;5073058;28;20070;-45
2022/01/14 10:48:58;;;;;;;21.92;9.00;;;4.10;99.90;;;;;;5071825;28;20111;-46
2022/01/14 10:51:47;;;;;;;30.55;8.93;;;3.90;99.90;;;;;;5072776;28;20031;-44
2022/01/14 10:54:43;;;;;;;24.48;8.98;;;3.60;99.90;;;;;;5071662;28;20031;-45
2022/01/14 10:57:15;;;;;;;29.90;8.95;;;3.20;99.90;;;;;;5071934;28;20028;-49
2022/01/14 10:59:41;;;;;;;26.15;8.05;;;3.40;99.90;;;;;;5076947;28;20016;-46
2022/01/14 11:02:37;;;;;;;30.60;7.70;;;3.30;99.90;;;;;;5075681;28;20024;-51
2022/01/14 11:05:07;;;;;;;23.15;7.88;;;3.40;99.90;;;;;;5076144;28;20040;-49
2022/01/14 11:07:33;;;;;;;20.40;7.85;;;3.70;99.90;;;;;;5077052;28;20025;-47
2022/01/14 11:10:00;;;;;;;31.27;8.63;;;3.80;99.90;;;;;;5076937;28;20067;-49
2022/01/14 11:12:25;;;;;;;22.00;8.02;;;4.00;99.90;;;;;;5076831;28;20103;-47
2022/01/14 11:14:51;;;;;;;19.80;8.65;;;3.80;99.90;;;;;;5075669;28;20027;-46
2022/01/14 11:17:17;;;;;;;20.58;8.25;;;3.60;99.90;;;;;;5076000;28;20021;-48
2022/01/14 11:19:46;;;;;;;17.52;7.63;;;3.80;99.90;;;;;;5073076;28;20376;-48
2022/01/14 11:25:21;;;;;;;25.92;9.38;;;3.70;99.90;;;;;;5056903;28;20032;-47
2022/01/14 11:27:51;;;;;;;24.13;9.88;;;3.50;99.90;;;;;;5056545;28;20014;-46
2022/01/14 11:30:17;;;;;;;26.52;8.55;;;3.40;99.90;;;;;;5056628;28;20025;-47
2022/01/14 11:32:56;;;;;;;21.10;8.38;;;3.70;99.90;;;;;;5055136;28;20033;-47
2022/01/14 11:38:46;;;;;;;20.30;9.02;;;3.70;99.90;;;;;;5056803;28;20047;-47
2022/01/14 11:41:18;;;;;;;26.55;9.15;;;3.80;99.90;;;;;;5055358;28;20025;-46
2022/01/14 11:43:46;;;;;;;26.85;8.73;;;3.40;99.90;;;;;;5054912;28;20025;-49
2022/01/14 11:46:15;;;;;;;29.58;9.50;;;3.30;99.90;;;;;;5055079;28;20025;-55
2022/01/14 11:48:58;;;;;;;23.67;9.40;;;3.20;99.90;;;;;;5067851;28;20554;-50
2022/01/14 11:51:24;;;;;;;21.25;8.88;;;3.60;99.90;;;;;;5074811;28;20063;-47
2022/01/14 11:53:49;;;;;;;21.13;9.52;;;4.20;99.90;;;;;;5075900;28;20052;-47
2022/01/14 11:56:31;;;;;;;22.05;8.15;;;4.40;99.90;;;;;;5075960;28;20063;-48
2022/01/14 11:59:19;;;;;;;26.85;9.90;;;4.50;99.90;;;;;;5075026;28;20027;-49
2022/01/14 12:01:50;;;;;;;25.35;10.20;;;4.70;99.90;;;;;;5074820;28;20024;-53
2022/01/14 12:04:18;;;;;;;29.65;10.02;;;4.50;99.90;;;;;;5075077;28;20283;-52
2022/01/14 12:06:50;;;;;;;32.28;9.50;;;4.10;99.90;;;;;;5074597;28;20021;-47
2022/01/14 12:09:17;;;;;;;26.13;9.52;;;4.10;99.90;;;;;;5073892;28;20024;-47
2022/01/14 12:11:42;;;;;;;28.67;10.88;;;4.20;99.90;;;;;;5074325;28;20115;-47
2022/01/14 12:14:08;;;;;;;32.47;9.85;;;4.00;99.90;;;;;;5075573;28;20052;-47
2022/01/14 12:19:10;;;;;;;31.10;10.38;;;4.00;99.90;;;;;;5076020;28;20017;-47
2022/01/14 12:21:44;;;;;;;28.13;9.93;;;3.90;99.90;;;;;;5069654;28;20021;-49
2022/01/14 12:24:32;;;;;;;34.40;10.32;;;3.70;99.90;;;;;;5055426;28;20032;-47
2022/01/14 12:26:58;;;;;;;30.02;10.15;;;3.70;99.90;;;;;;5054582;28;20021;-47
2022/01/14 12:29:35;;;;;;;32.25;10.77;;;3.70;99.90;;;;;;5055356;28;20024;-46
2022/01/14 12:32:05;;;;;;;27.17;10.10;;;3.60;99.90;;;;;;5075186;28;20027;-47
2022/01/14 12:34:45;;;;;;;31.17;12.07;;;3.70;99.90;;;;;;5075216;28;20086;-47
2022/01/14 12:37:21;;;;;;;29.33;9.68;;;3.70;99.90;;;;;;5075360;28;20103;-49
2022/01/14 12:39:49;;;;;;;28.42;10.50;;;3.60;99.90;;;;;;5074343;28;20028;-47
2022/01/14 12:42:14;;;;;;;31.67;10.75;;;3.60;99.90;;;;;;5073613;28;20031;-47
2022/01/14 12:44:40;;;;;;;34.17;10.73;;;3.70;99.90;;;;;;5075168;28;20033;-49
2022/01/14 12:47:09;;;;;;;30.65;11.98;;;3.60;99.90;;;;;;5074139;28;20031;-46
2022/01/14 12:49:40;;;;;;;25.92;10.27;;;3.90;99.90;;;;;;5075369;28;20019;-48
2022/01/14 12:52:11;;;;;;;27.08;9.57;;;4.10;99.90;;;;;;5073728;28;20035;-49
2022/01/14 12:54:39;;;;;;;34.55;10.85;;;4.20;99.90;;;;;;5073975;28;20059;-46
2022/01/14 12:57:05;;;;;;;23.63;9.25;;;4.00;99.90;;;;;;5067157;28;20025;-49
2022/01/14 12:59:53;;;;;;;26.17;11.00;;;3.90;99.90;;;;;;5054797;28;20167;-46
2022/01/14 13:02:23;;;;;;;27.23;9.80;;;4.20;99.90;;;;;;5053393;28;20493;-46
2022/01/14 13:05:02;;;;;;;28.58;10.85;;;4.00;99.90;;;;;;5055720;28;20025;-47
2022/01/14 13:07:28;;;;;;;22.10;10.35;;;4.00;99.90;;;;;;5054586;28;20025;-46
2022/01/14 13:09:54;;;;;;;25.15;10.20;;;3.80;99.90;;;;;;5054577;28;20028;-47
2022/01/14 13:12:23;;;;;;;23.92;9.60;;;4.20;99.90;;;;;;5054535;28;20033;-46
2022/01/14 13:14:57;;;;;;;34.50;10.45;;;4.30;99.90;;;;;;5054589;28;20028;-47
2022/01/14 13:17:27;;;;;;;28.77;10.65;;;4.40;99.90;;;;;;5054297;28;20024;-48
2022/01/14 13:20:08;;;;;;;28.60;10.23;;;4.20;99.90;;;;;;5054751;28;20024;-48
2022/01/14 13:22:34;;;;;;;28.92;10.75;;;4.20;99.90;;;;;;5068979;28;20036;-47
2022/01/14 13:25:05;;;;;;;37.08;11.68;;;4.10;99.90;;;;;;5052953;28;20032;-47
2022/01/14 13:27:33;;;;;;;40.05;13.70;;;3.90;99.90;;;;;;5069674;28;20110;-49